sensor_id;sensor_type;location;lat;lon;timestamp;P1;durP1;ratioP1;P2;durP2;ratioP2
33740;SDS011;20065;48.380;10.892;2022-10-16T00:01:51;8.50;;;3.27;;
33740;SDS011;20065;48.380;10.892;2022-10-16T00:04:37;5.50;;;3.30;;
33740;SDS011;20065;48.380;10.892;2022-10-16T00:07:24;6.00;;;3.33;;
33740;SDS011;20065;48.380;10.892;2022-10-16T00:10:10;12.23;;;3.00;;
33740;SDS011;20065;48.380;10.892;2022-10-16T00:12:57;6.60;;;3.00;;
33740;SDS011;20065;48.380;10.892;2022-10-16T00:15:45;5.43;;;3.10;;
33740;SDS011;20065;48.380;10.892;2022-10-16T00:18:32;4.57;;;3.10;;
33740;SDS011;20065;48.380;10.892;2022-10-16T00:21:20;10.50;;;2.90;;
33740;SDS011;20065;48.380;10.892;2022-10-16T00:24:09;5.57;;;3.40;;
33740;SDS011;20065;48.380;10.892;2022-10-16T00:26:55;4.97;;;3.03;;
33740;SDS011;20065;48.380;10.892;2022-10-16T00:29:42;8.33;;;3.27;;
33740;SDS011;20065;48.380;10.892;2022-10-16T00:32:29;6.30;;;2.67;;
33740;SDS011;20065;48.380;10.892;2022-10-16T00:35:15;5.73;;;2.60;;
33740;SDS011;20065;48.380;10.892;2022-10-16T00:38:02;5.40;;;2.50;;
33740;SDS011;20065;48.380;10.892;2022-10-16T00:40:49;4.20;;;2.70;;
33740;SDS011;20065;48.380;10.892;2022-10-16T00:43:41;5.60;;;2.63;;
33740;SDS011;20065;48.380;10.892;2022-10-16T00:49:16;3.60;;;1.97;;
33740;SDS011;20065;48.380;10.892;2022-10-16T00:52:03;5.10;;;2.63;;
33740;SDS011;20065;48.380;10.892;2022-10-16T00:54:49;4.00;;;2.30;;
33740;SDS011;20065;48.380;10.892;2022-10-16T00:57:36;4.40;;;2.13;;
33740;SDS011;20065;48.380;10.892;2022-10-16T01:00:24;4.87;;;2.23;;
33740;SDS011;20065;48.380;10.892;2022-10-16T01:03:28;5.17;;;2.10;;
33740;SDS011;20065;48.380;10.892;2022-10-16T01:06:21;5.90;;;2.50;;
33740;SDS011;20065;48.380;10.892;2022-10-16T01:20:33;7.80;;;2.83;;
33740;SDS011;20065;48.380;10.892;2022-10-16T01:29:34;5.77;;;2.77;;
33740;SDS011;20065;48.380;10.892;2022-10-16T01:35:28;4.00;;;2.30;;
33740;SDS011;20065;48.380;10.892;2022-10-16T01:38:21;4.40;;;2.40;;
33740;SDS011;20065;48.380;10.892;2022-10-16T01:41:10;3.77;;;2.03;;
33740;SDS011;20065;48.380;10.892;2022-10-16T01:44:01;8.10;;;2.10;;
33740;SDS011;20065;48.380;10.892;2022-10-16T01:46:49;5.53;;;2.87;;
33740;SDS011;20065;48.380;10.892;2022-10-16T01:49:37;4.47;;;2.03;;
33740;SDS011;20065;48.380;10.892;2022-10-16T01:52:25;4.30;;;2.10;;
33740;SDS011;20065;48.380;10.892;2022-10-16T01:55:21;4.20;;;2.37;;
33740;SDS011;20065;48.380;10.892;2022-10-16T01:58:08;4.80;;;2.23;;
33740;SDS011;20065;48.380;10.892;2022-10-16T02:00:56;7.40;;;2.63;;
33740;SDS011;20065;48.380;10.892;2022-10-16T02:03:42;17.57;;;2.77;;
33740;SDS011;20065;48.380;10.892;2022-10-16T02:06:30;4.00;;;2.40;;
33740;SDS011;20065;48.380;10.892;2022-10-16T02:09:17;8.10;;;2.93;;
33740;SDS011;20065;48.380;10.892;2022-10-16T02:12:09;8.43;;;2.57;;
33740;SDS011;20065;48.380;10.892;2022-10-16T02:14:57;6.87;;;2.30;;
33740;SDS011;20065;48.380;10.892;2022-10-16T02:17:44;5.93;;;2.60;;
33740;SDS011;20065;48.380;10.892;2022-10-16T02:20:38;6.50;;;2.33;;
33740;SDS011;20065;48.380;10.892;2022-10-16T02:23:44;7.13;;;2.10;;
33740;SDS011;20065;48.380;10.892;2022-10-16T02:29:22;8.60;;;2.60;;
33740;SDS011;20065;48.380;10.892;2022-10-16T02:32:10;6.07;;;2.70;;
33740;SDS011;20065;48.380;10.892;2022-10-16T02:34:57;3.70;;;2.20;;
33740;SDS011;20065;48.380;10.892;2022-10-16T02:37:46;4.33;;;2.37;;
33740;SDS011;20065;48.380;10.892;2022-10-16T02:40:35;6.20;;;2.50;;
33740;SDS011;20065;48.380;10.892;2022-10-16T02:43:21;6.00;;;2.20;;
33740;SDS011;20065;48.380;10.892;2022-10-16T02:46:08;7.73;;;2.20;;
33740;SDS011;20065;48.380;10.892;2022-10-16T02:48:54;6.40;;;2.33;;
33740;SDS011;20065;48.380;10.892;2022-10-16T02:51:41;4.47;;;2.13;;
33740;SDS011;20065;48.380;10.892;2022-10-16T02:54:28;3.83;;;2.20;;
33740;SDS011;20065;48.380;10.892;2022-10-16T02:57:14;7.17;;;2.30;;
33740;SDS011;20065;48.380;10.892;2022-10-16T03:00:01;4.57;;;2.07;;
33740;SDS011;20065;48.380;10.892;2022-10-16T03:02:48;3.50;;;1.87;;
33740;SDS011;20065;48.380;10.892;2022-10-16T03:05:35;7.87;;;1.93;;
33740;SDS011;20065;48.380;10.892;2022-10-16T03:08:21;4.53;;;2.10;;
33740;SDS011;20065;48.380;10.892;2022-10-16T03:11:10;6.80;;;2.17;;
33740;SDS011;20065;48.380;10.892;2022-10-16T03:13:57;4.33;;;2.40;;
33740;SDS011;20065;48.380;10.892;2022-10-16T03:16:43;3.83;;;2.10;;
33740;SDS011;20065;48.380;10.892;2022-10-16T03:19:30;5.43;;;1.97;;
33740;SDS011;20065;48.380;10.892;2022-10-16T03:22:16;7.00;;;1.80;;
33740;SDS011;20065;48.380;10.892;2022-10-16T03:25:03;6.33;;;2.10;;
33740;SDS011;20065;48.380;10.892;2022-10-16T03:27:49;5.53;;;2.20;;
33740;SDS011;20065;48.380;10.892;2022-10-16T03:30:36;5.90;;;1.90;;
33740;SDS011;20065;48.380;10.892;2022-10-16T03:33:25;7.13;;;2.50;;
33740;SDS011;20065;48.380;10.892;2022-10-16T03:36:12;4.33;;;1.93;;
33740;SDS011;20065;48.380;10.892;2022-10-16T03:38:59;4.90;;;2.40;;
33740;SDS011;20065;48.380;10.892;2022-10-16T03:41:45;9.40;;;2.47;;
33740;SDS011;20065;48.380;10.892;2022-10-16T03:44:32;4.20;;;2.20;;
33740;SDS011;20065;48.380;10.892;2022-10-16T03:47:18;3.93;;;2.20;;
33740;SDS011;20065;48.380;10.892;2022-10-16T03:50:07;3.20;;;1.80;;
33740;SDS011;20065;48.380;10.892;2022-10-16T03:52:54;4.93;;;1.70;;
33740;SDS011;20065;48.380;10.892;2022-10-16T03:55:41;3.23;;;1.80;;
33740;SDS011;20065;48.380;10.892;2022-10-16T03:58:28;3.83;;;2.17;;
33740;SDS011;20065;48.380;10.892;2022-10-16T04:01:14;3.80;;;1.93;;
33740;SDS011;20065;48.380;10.892;2022-10-16T04:04:01;3.50;;;2.03;;
33740;SDS011;20065;48.380;10.892;2022-10-16T04:06:47;5.33;;;1.80;;
33740;SDS011;20065;48.380;10.892;2022-10-16T04:09:34;4.90;;;2.03;;
33740;SDS011;20065;48.380;10.892;2022-10-16T04:12:20;4.40;;;1.73;;
33740;SDS011;20065;48.380;10.892;2022-10-16T04:15:07;5.30;;;2.10;;
33740;SDS011;20065;48.380;10.892;2022-10-16T04:17:53;4.10;;;1.93;;
33740;SDS011;20065;48.380;10.892;2022-10-16T04:20:40;5.20;;;2.07;;
33740;SDS011;20065;48.380;10.892;2022-10-16T04:23:27;4.43;;;1.83;;
33740;SDS011;20065;48.380;10.892;2022-10-16T04:26:13;6.50;;;2.00;;
33740;SDS011;20065;48.380;10.892;2022-10-16T04:29:00;4.07;;;1.70;;
33740;SDS011;20065;48.380;10.892;2022-10-16T04:31:46;4.20;;;2.20;;
33740;SDS011;20065;48.380;10.892;2022-10-16T04:34:33;5.33;;;2.20;;
33740;SDS011;20065;48.380;10.892;2022-10-16T04:37:23;4.00;;;1.60;;
33740;SDS011;20065;48.380;10.892;2022-10-16T04:40:10;3.30;;;1.60;;
33740;SDS011;20065;48.380;10.892;2022-10-16T04:42:56;7.07;;;2.30;;
33740;SDS011;20065;48.380;10.892;2022-10-16T04:45:43;5.10;;;1.80;;
33740;SDS011;20065;48.380;10.892;2022-10-16T04:48:30;4.10;;;1.77;;
33740;SDS011;20065;48.380;10.892;2022-10-16T04:51:16;5.90;;;2.10;;
33740;SDS011;20065;48.380;10.892;2022-10-16T04:54:04;4.33;;;1.63;;
33740;SDS011;20065;48.380;10.892;2022-10-16T04:56:50;5.33;;;1.90;;
33740;SDS011;20065;48.380;10.892;2022-10-16T04:59:38;3.33;;;1.77;;
33740;SDS011;20065;48.380;10.892;2022-10-16T05:02:25;4.23;;;2.00;;
33740;SDS011;20065;48.380;10.892;2022-10-16T05:05:11;4.67;;;1.80;;
33740;SDS011;20065;48.380;10.892;2022-10-16T05:07:58;4.53;;;2.20;;
33740;SDS011;20065;48.380;10.892;2022-10-16T05:10:45;8.50;;;2.47;;
33740;SDS011;20065;48.380;10.892;2022-10-16T05:13:31;5.90;;;2.67;;
33740;SDS011;20065;48.380;10.892;2022-10-16T05:16:18;3.23;;;1.50;;
33740;SDS011;20065;48.380;10.892;2022-10-16T05:19:04;4.20;;;1.90;;
33740;SDS011;20065;48.380;10.892;2022-10-16T05:21:51;4.80;;;1.60;;
33740;SDS011;20065;48.380;10.892;2022-10-16T05:24:37;4.63;;;1.90;;
33740;SDS011;20065;48.380;10.892;2022-10-16T05:27:24;6.13;;;1.93;;
33740;SDS011;20065;48.380;10.892;2022-10-16T05:30:10;6.60;;;2.07;;
33740;SDS011;20065;48.380;10.892;2022-10-16T05:32:57;5.10;;;1.60;;
33740;SDS011;20065;48.380;10.892;2022-10-16T05:35:44;4.47;;;1.67;;
33740;SDS011;20065;48.380;10.892;2022-10-16T05:38:34;2.70;;;1.37;;
33740;SDS011;20065;48.380;10.892;2022-10-16T05:41:20;4.33;;;1.47;;
33740;SDS011;20065;48.380;10.892;2022-10-16T05:44:09;7.40;;;1.83;;
33740;SDS011;20065;48.380;10.892;2022-10-16T05:46:55;9.60;;;1.90;;
33740;SDS011;20065;48.380;10.892;2022-10-16T05:49:42;3.23;;;1.57;;
33740;SDS011;20065;48.380;10.892;2022-10-16T05:52:28;4.27;;;1.30;;
33740;SDS011;20065;48.380;10.892;2022-10-16T05:55:15;3.63;;;1.40;;
33740;SDS011;20065;48.380;10.892;2022-10-16T05:58:01;7.00;;;2.00;;
33740;SDS011;20065;48.380;10.892;2022-10-16T06:00:55;3.30;;;1.40;;
33740;SDS011;20065;48.380;10.892;2022-10-16T06:03:42;3.07;;;1.50;;
33740;SDS011;20065;48.380;10.892;2022-10-16T06:06:28;5.20;;;1.87;;
33740;SDS011;20065;48.380;10.892;2022-10-16T06:09:16;3.30;;;1.53;;
33740;SDS011;20065;48.380;10.892;2022-10-16T06:12:02;3.27;;;1.90;;
33740;SDS011;20065;48.380;10.892;2022-10-16T06:14:49;3.93;;;1.73;;
33740;SDS011;20065;48.380;10.892;2022-10-16T06:17:36;4.13;;;2.08;;
33740;SDS011;20065;48.380;10.892;2022-10-16T06:20:22;11.77;;;2.00;;
33740;SDS011;20065;48.380;10.892;2022-10-16T06:23:09;6.43;;;1.77;;
33740;SDS011;20065;48.380;10.892;2022-10-16T06:26:03;4.60;;;1.30;;
33740;SDS011;20065;48.380;10.892;2022-10-16T06:28:50;4.73;;;1.80;;
33740;SDS011;20065;48.380;10.892;2022-10-16T06:31:36;5.30;;;1.70;;
33740;SDS011;20065;48.380;10.892;2022-10-16T06:34:23;2.90;;;1.50;;
33740;SDS011;20065;48.380;10.892;2022-10-16T06:37:10;4.10;;;1.50;;
33740;SDS011;20065;48.380;10.892;2022-10-16T06:39:56;3.50;;;1.70;;
33740;SDS011;20065;48.380;10.892;2022-10-16T06:42:43;4.03;;;1.50;;
33740;SDS011;20065;48.380;10.892;2022-10-16T06:45:30;3.93;;;1.93;;
33740;SDS011;20065;48.380;10.892;2022-10-16T06:48:17;4.30;;;1.73;;
33740;SDS011;20065;48.380;10.892;2022-10-16T06:51:05;5.83;;;1.57;;
33740;SDS011;20065;48.380;10.892;2022-10-16T06:53:52;2.87;;;1.50;;
33740;SDS011;20065;48.380;10.892;2022-10-16T06:56:39;6.23;;;1.73;;
33740;SDS011;20065;48.380;10.892;2022-10-16T06:59:25;4.30;;;1.90;;
33740;SDS011;20065;48.380;10.892;2022-10-16T07:02:12;7.67;;;1.90;;
33740;SDS011;20065;48.380;10.892;2022-10-16T07:04:58;3.37;;;1.70;;
33740;SDS011;20065;48.380;10.892;2022-10-16T07:07:45;3.60;;;1.90;;
33740;SDS011;20065;48.380;10.892;2022-10-16T07:10:32;6.27;;;1.90;;
33740;SDS011;20065;48.380;10.892;2022-10-16T07:13:18;4.07;;;1.70;;
33740;SDS011;20065;48.380;10.892;2022-10-16T07:16:12;4.00;;;2.00;;
33740;SDS011;20065;48.380;10.892;2022-10-16T07:19:00;3.90;;;1.83;;
33740;SDS011;20065;48.380;10.892;2022-10-16T07:21:47;6.40;;;1.53;;
33740;SDS011;20065;48.380;10.892;2022-10-16T07:24:33;7.47;;;1.60;;
33740;SDS011;20065;48.380;10.892;2022-10-16T07:27:20;3.80;;;1.93;;
33740;SDS011;20065;48.380;10.892;2022-10-16T07:30:09;4.00;;;1.60;;
33740;SDS011;20065;48.380;10.892;2022-10-16T07:32:56;5.40;;;2.47;;
33740;SDS011;20065;48.380;10.892;2022-10-16T07:35:52;5.70;;;1.73;;
33740;SDS011;20065;48.380;10.892;2022-10-16T07:38:38;4.83;;;1.63;;
33740;SDS011;20065;48.380;10.892;2022-10-16T07:41:25;3.60;;;1.70;;
33740;SDS011;20065;48.380;10.892;2022-10-16T07:44:11;4.90;;;2.20;;
33740;SDS011;20065;48.380;10.892;2022-10-16T07:46:58;2.40;;;1.10;;
33740;SDS011;20065;48.380;10.892;2022-10-16T07:49:44;7.80;;;1.70;;
33740;SDS011;20065;48.380;10.892;2022-10-16T07:52:31;4.63;;;1.83;;
33740;SDS011;20065;48.380;10.892;2022-10-16T07:55:18;4.70;;;1.87;;
33740;SDS011;20065;48.380;10.892;2022-10-16T07:58:04;4.63;;;2.37;;
33740;SDS011;20065;48.380;10.892;2022-10-16T08:00:51;3.60;;;1.60;;
33740;SDS011;20065;48.380;10.892;2022-10-16T08:03:37;3.57;;;1.60;;
33740;SDS011;20065;48.380;10.892;2022-10-16T08:06:24;3.00;;;1.33;;
33740;SDS011;20065;48.380;10.892;2022-10-16T08:09:10;4.63;;;1.60;;
33740;SDS011;20065;48.380;10.892;2022-10-16T08:11:57;3.30;;;1.50;;
33740;SDS011;20065;48.380;10.892;2022-10-16T08:14:44;3.07;;;1.33;;
33740;SDS011;20065;48.380;10.892;2022-10-16T08:17:30;3.00;;;1.57;;
33740;SDS011;20065;48.380;10.892;2022-10-16T08:20:17;6.40;;;1.70;;
33740;SDS011;20065;48.380;10.892;2022-10-16T08:23:04;4.27;;;2.00;;
33740;SDS011;20065;48.380;10.892;2022-10-16T08:25:50;3.83;;;1.63;;
33740;SDS011;20065;48.380;10.892;2022-10-16T08:28:38;3.40;;;1.63;;
33740;SDS011;20065;48.380;10.892;2022-10-16T08:31:25;4.80;;;1.70;;
33740;SDS011;20065;48.380;10.892;2022-10-16T08:34:12;4.47;;;1.90;;
33740;SDS011;20065;48.380;10.892;2022-10-16T08:36:59;4.40;;;1.73;;
33740;SDS011;20065;48.380;10.892;2022-10-16T08:39:46;5.87;;;1.57;;
33740;SDS011;20065;48.380;10.892;2022-10-16T08:51:50;3.20;;;1.33;;
33740;SDS011;20065;48.380;10.892;2022-10-16T08:54:43;2.80;;;1.20;;
33740;SDS011;20065;48.380;10.892;2022-10-16T08:57:32;3.30;;;1.20;;
33740;SDS011;20065;48.380;10.892;2022-10-16T09:00:19;2.67;;;1.30;;
33740;SDS011;20065;48.380;10.892;2022-10-16T09:17:49;3.40;;;1.40;;
33740;SDS011;20065;48.380;10.892;2022-10-16T09:23:36;4.30;;;1.53;;
33740;SDS011;20065;48.380;10.892;2022-10-16T09:26:24;3.63;;;1.83;;
33740;SDS011;20065;48.380;10.892;2022-10-16T09:29:12;4.83;;;1.33;;
33740;SDS011;20065;48.380;10.892;2022-10-16T09:32:06;2.70;;;1.20;;
33740;SDS011;20065;48.380;10.892;2022-10-16T09:34:53;2.77;;;1.00;;
33740;SDS011;20065;48.380;10.892;2022-10-16T09:37:43;3.03;;;1.37;;
33740;SDS011;20065;48.380;10.892;2022-10-16T09:40:31;7.40;;;1.20;;
33740;SDS011;20065;48.380;10.892;2022-10-16T09:49:20;3.40;;;1.20;;
33740;SDS011;20065;48.380;10.892;2022-10-16T09:52:13;4.03;;;1.43;;
33740;SDS011;20065;48.380;10.892;2022-10-16T09:55:02;2.30;;;1.17;;
33740;SDS011;20065;48.380;10.892;2022-10-16T09:57:50;2.40;;;1.27;;
33740;SDS011;20065;48.380;10.892;2022-10-16T10:00:37;2.83;;;1.30;;
33740;SDS011;20065;48.380;10.892;2022-10-16T10:03:35;3.37;;;1.20;;
33740;SDS011;20065;48.380;10.892;2022-10-16T10:06:23;3.27;;;1.10;;
33740;SDS011;20065;48.380;10.892;2022-10-16T10:12:01;4.93;;;1.33;;
33740;SDS011;20065;48.380;10.892;2022-10-16T10:14:49;3.70;;;1.10;;
33740;SDS011;20065;48.380;10.892;2022-10-16T10:17:45;3.37;;;1.27;;
33740;SDS011;20065;48.380;10.892;2022-10-16T10:20:35;6.90;;;2.03;;
33740;SDS011;20065;48.380;10.892;2022-10-16T10:23:25;2.67;;;0.90;;
33740;SDS011;20065;48.380;10.892;2022-10-16T10:29:04;3.60;;;1.33;;
33740;SDS011;20065;48.380;10.892;2022-10-16T10:34:59;3.70;;;1.20;;
33740;SDS011;20065;48.380;10.892;2022-10-16T10:46:35;3.53;;;1.10;;
33740;SDS011;20065;48.380;10.892;2022-10-16T10:55:43;5.07;;;1.50;;
33740;SDS011;20065;48.380;10.892;2022-10-16T10:58:36;3.50;;;1.50;;
33740;SDS011;20065;48.380;10.892;2022-10-16T11:01:31;2.60;;;1.23;;
33740;SDS011;20065;48.380;10.892;2022-10-16T11:07:32;2.60;;;1.20;;
33740;SDS011;20065;48.380;10.892;2022-10-16T11:10:20;3.70;;;1.40;;
33740;SDS011;20065;48.380;10.892;2022-10-16T11:16:13;2.30;;;0.80;;
33740;SDS011;20065;48.380;10.892;2022-10-16T11:19:05;3.73;;;1.30;;
33740;SDS011;20065;48.380;10.892;2022-10-16T11:24:47;2.90;;;1.10;;
33740;SDS011;20065;48.380;10.892;2022-10-16T11:27:37;4.60;;;1.13;;
33740;SDS011;20065;48.380;10.892;2022-10-16T11:30:27;2.73;;;0.90;;
33740;SDS011;20065;48.380;10.892;2022-10-16T11:36:06;2.63;;;0.93;;
33740;SDS011;20065;48.380;10.892;2022-10-16T11:38:58;2.40;;;0.90;;
33740;SDS011;20065;48.380;10.892;2022-10-16T11:41:53;3.00;;;1.20;;
33740;SDS011;20065;48.380;10.892;2022-10-16T11:51:05;2.30;;;1.00;;
33740;SDS011;20065;48.380;10.892;2022-10-16T11:54:32;3.50;;;1.30;;
33740;SDS011;20065;48.380;10.892;2022-10-16T11:56:46;2.77;;;1.10;;
33740;SDS011;20065;48.380;10.892;2022-10-16T12:06:02;3.33;;;1.20;;
33740;SDS011;20065;48.380;10.892;2022-10-16T12:08:52;2.40;;;0.90;;
33740;SDS011;20065;48.380;10.892;2022-10-16T12:11:41;3.20;;;1.40;;
33740;SDS011;20065;48.380;10.892;2022-10-16T12:17:24;2.47;;;1.00;;
33740;SDS011;20065;48.380;10.892;2022-10-16T12:23:02;3.03;;;1.07;;
33740;SDS011;20065;48.380;10.892;2022-10-16T12:25:56;4.10;;;1.13;;
33740;SDS011;20065;48.380;10.892;2022-10-16T12:28:43;3.60;;;1.00;;
33740;SDS011;20065;48.380;10.892;2022-10-16T12:31:37;2.50;;;0.87;;
33740;SDS011;20065;48.380;10.892;2022-10-16T12:34:29;4.77;;;1.40;;
33740;SDS011;20065;48.380;10.892;2022-10-16T12:37:22;2.10;;;0.80;;
33740;SDS011;20065;48.380;10.892;2022-10-16T12:40:15;3.37;;;1.20;;
33740;SDS011;20065;48.380;10.892;2022-10-16T12:43:13;2.50;;;1.10;;
33740;SDS011;20065;48.380;10.892;2022-10-16T12:51:58;2.90;;;1.23;;
33740;SDS011;20065;48.380;10.892;2022-10-16T12:54:45;2.57;;;1.23;;
33740;SDS011;20065;48.380;10.892;2022-10-16T13:15:35;2.43;;;0.97;;
33740;SDS011;20065;48.380;10.892;2022-10-16T13:18:42;4.10;;;1.37;;
33740;SDS011;20065;48.380;10.892;2022-10-16T13:24:42;3.50;;;1.10;;
33740;SDS011;20065;48.380;10.892;2022-10-16T13:27:36;3.10;;;1.30;;
33740;SDS011;20065;48.380;10.892;2022-10-16T13:30:29;3.40;;;1.50;;
33740;SDS011;20065;48.380;10.892;2022-10-16T13:33:19;4.70;;;1.30;;
33740;SDS011;20065;48.380;10.892;2022-10-16T13:36:06;5.30;;;1.13;;
33740;SDS011;20065;48.380;10.892;2022-10-16T13:39:27;5.70;;;1.27;;
33740;SDS011;20065;48.380;10.892;2022-10-16T13:42:10;3.70;;;1.17;;
33740;SDS011;20065;48.380;10.892;2022-10-16T13:45:01;3.87;;;1.33;;
33740;SDS011;20065;48.380;10.892;2022-10-16T13:47:47;3.90;;;1.00;;
33740;SDS011;20065;48.380;10.892;2022-10-16T13:50:34;3.23;;;1.30;;
33740;SDS011;20065;48.380;10.892;2022-10-16T13:53:21;3.40;;;1.33;;
33740;SDS011;20065;48.380;10.892;2022-10-16T13:56:10;3.50;;;1.10;;
33740;SDS011;20065;48.380;10.892;2022-10-16T13:59:07;4.07;;;1.20;;
33740;SDS011;20065;48.380;10.892;2022-10-16T14:02:50;3.70;;;1.50;;
33740;SDS011;20065;48.380;10.892;2022-10-16T14:05:20;5.87;;;1.10;;
33740;SDS011;20065;48.380;10.892;2022-10-16T14:08:09;2.47;;;1.00;;
33740;SDS011;20065;48.380;10.892;2022-10-16T14:10:57;3.07;;;1.23;;
33740;SDS011;20065;48.380;10.892;2022-10-16T14:13:45;3.40;;;1.40;;
33740;SDS011;20065;48.380;10.892;2022-10-16T14:16:33;2.53;;;1.10;;
33740;SDS011;20065;48.380;10.892;2022-10-16T14:19:21;4.03;;;2.77;;
33740;SDS011;20065;48.380;10.892;2022-10-16T14:34:34;2.47;;;1.10;;
33740;SDS011;20065;48.380;10.892;2022-10-16T14:37:25;2.80;;;1.17;;
33740;SDS011;20065;48.380;10.892;2022-10-16T14:40:14;3.40;;;1.23;;
33740;SDS011;20065;48.380;10.892;2022-10-16T14:43:01;3.57;;;1.10;;
33740;SDS011;20065;48.380;10.892;2022-10-16T14:45:53;2.70;;;1.57;;
33740;SDS011;20065;48.380;10.892;2022-10-16T14:48:41;4.30;;;1.30;;
33740;SDS011;20065;48.380;10.892;2022-10-16T14:51:28;2.70;;;1.30;;
33740;SDS011;20065;48.380;10.892;2022-10-16T14:54:16;4.40;;;1.17;;
33740;SDS011;20065;48.380;10.892;2022-10-16T14:57:03;4.03;;;1.23;;
33740;SDS011;20065;48.380;10.892;2022-10-16T14:59:50;3.23;;;1.50;;
33740;SDS011;20065;48.380;10.892;2022-10-16T15:02:40;5.23;;;1.70;;
33740;SDS011;20065;48.380;10.892;2022-10-16T15:05:27;2.27;;;1.10;;
33740;SDS011;20065;48.380;10.892;2022-10-16T15:08:15;3.60;;;1.07;;
33740;SDS011;20065;48.380;10.892;2022-10-16T15:11:03;4.70;;;1.30;;
33740;SDS011;20065;48.380;10.892;2022-10-16T15:13:51;4.33;;;1.20;;
33740;SDS011;20065;48.380;10.892;2022-10-16T15:16:38;4.40;;;1.23;;
33740;SDS011;20065;48.380;10.892;2022-10-16T15:19:29;4.43;;;1.13;;
33740;SDS011;20065;48.380;10.892;2022-10-16T15:22:19;6.00;;;1.60;;
33740;SDS011;20065;48.380;10.892;2022-10-16T15:25:28;5.40;;;1.87;;
33740;SDS011;20065;48.380;10.892;2022-10-16T15:28:16;5.90;;;2.30;;
33740;SDS011;20065;48.380;10.892;2022-10-16T15:31:03;12.30;;;4.43;;
33740;SDS011;20065;48.380;10.892;2022-10-16T15:33:56;7.70;;;2.90;;
33740;SDS011;20065;48.380;10.892;2022-10-16T15:36:51;6.60;;;2.87;;
33740;SDS011;20065;48.380;10.892;2022-10-16T15:39:37;5.80;;;2.20;;
33740;SDS011;20065;48.380;10.892;2022-10-16T15:42:24;3.90;;;1.60;;
33740;SDS011;20065;48.380;10.892;2022-10-16T15:45:11;6.20;;;1.93;;
33740;SDS011;20065;48.380;10.892;2022-10-16T15:47:57;4.30;;;1.50;;
33740;SDS011;20065;48.380;10.892;2022-10-16T15:50:44;3.73;;;1.50;;
33740;SDS011;20065;48.380;10.892;2022-10-16T15:53:33;4.13;;;1.60;;
33740;SDS011;20065;48.380;10.892;2022-10-16T15:56:20;3.40;;;1.30;;
33740;SDS011;20065;48.380;10.892;2022-10-16T15:59:07;6.00;;;1.43;;
33740;SDS011;20065;48.380;10.892;2022-10-16T16:01:54;6.00;;;1.60;;
33740;SDS011;20065;48.380;10.892;2022-10-16T16:04:41;5.57;;;1.80;;
33740;SDS011;20065;48.380;10.892;2022-10-16T16:07:34;2.80;;;1.30;;
33740;SDS011;20065;48.380;10.892;2022-10-16T16:10:21;3.07;;;1.60;;
33740;SDS011;20065;48.380;10.892;2022-10-16T16:13:07;3.30;;;1.87;;
33740;SDS011;20065;48.380;10.892;2022-10-16T16:15:54;4.57;;;1.47;;
33740;SDS011;20065;48.380;10.892;2022-10-16T16:18:41;5.40;;;1.60;;
33740;SDS011;20065;48.380;10.892;2022-10-16T16:21:27;6.37;;;1.83;;
33740;SDS011;20065;48.380;10.892;2022-10-16T16:24:14;9.33;;;3.70;;
33740;SDS011;20065;48.380;10.892;2022-10-16T16:27:08;3.13;;;1.80;;
33740;SDS011;20065;48.380;10.892;2022-10-16T16:29:57;3.60;;;1.83;;
33740;SDS011;20065;48.380;10.892;2022-10-16T16:32:45;7.93;;;2.13;;
33740;SDS011;20065;48.380;10.892;2022-10-16T16:35:33;5.13;;;1.70;;
33740;SDS011;20065;48.380;10.892;2022-10-16T16:38:19;3.60;;;2.07;;
33740;SDS011;20065;48.380;10.892;2022-10-16T16:41:16;4.20;;;1.70;;
33740;SDS011;20065;48.380;10.892;2022-10-16T16:44:04;3.33;;;1.70;;
33740;SDS011;20065;48.380;10.892;2022-10-16T16:46:51;5.57;;;1.87;;
33740;SDS011;20065;48.380;10.892;2022-10-16T16:49:38;5.47;;;1.57;;
33740;SDS011;20065;48.380;10.892;2022-10-16T16:52:26;4.83;;;2.10;;
33740;SDS011;20065;48.380;10.892;2022-10-16T16:55:15;4.97;;;2.87;;
33740;SDS011;20065;48.380;10.892;2022-10-16T16:58:02;8.17;;;2.30;;
33740;SDS011;20065;48.380;10.892;2022-10-16T17:00:49;7.57;;;2.60;;
33740;SDS011;20065;48.380;10.892;2022-10-16T17:03:36;7.90;;;2.40;;
33740;SDS011;20065;48.380;10.892;2022-10-16T17:06:26;7.90;;;2.73;;
33740;SDS011;20065;48.380;10.892;2022-10-16T17:09:14;8.87;;;3.33;;
33740;SDS011;20065;48.380;10.892;2022-10-16T17:12:02;6.33;;;3.33;;
33740;SDS011;20065;48.380;10.892;2022-10-16T17:14:49;7.43;;;3.30;;
33740;SDS011;20065;48.380;10.892;2022-10-16T17:17:36;7.23;;;3.27;;
33740;SDS011;20065;48.380;10.892;2022-10-16T17:20:23;8.03;;;3.67;;
33740;SDS011;20065;48.380;10.892;2022-10-16T17:23:10;11.23;;;3.67;;
33740;SDS011;20065;48.380;10.892;2022-10-16T17:25:58;8.63;;;3.77;;
33740;SDS011;20065;48.380;10.892;2022-10-16T17:28:52;6.30;;;3.10;;
33740;SDS011;20065;48.380;10.892;2022-10-16T17:31:39;5.50;;;3.53;;
33740;SDS011;20065;48.380;10.892;2022-10-16T17:34:26;9.23;;;3.10;;
33740;SDS011;20065;48.380;10.892;2022-10-16T17:37:12;7.20;;;3.43;;
33740;SDS011;20065;48.380;10.892;2022-10-16T17:39:59;9.23;;;3.77;;
33740;SDS011;20065;48.380;10.892;2022-10-16T17:42:45;7.33;;;3.10;;
33740;SDS011;20065;48.380;10.892;2022-10-16T17:45:35;7.70;;;3.73;;
33740;SDS011;20065;48.380;10.892;2022-10-16T17:48:24;21.53;;;5.20;;
33740;SDS011;20065;48.380;10.892;2022-10-16T17:51:12;7.37;;;3.27;;
33740;SDS011;20065;48.380;10.892;2022-10-16T17:54:00;5.43;;;2.60;;
33740;SDS011;20065;48.380;10.892;2022-10-16T17:56:48;5.63;;;3.00;;
33740;SDS011;20065;48.380;10.892;2022-10-16T17:59:34;4.60;;;2.60;;
33740;SDS011;20065;48.380;10.892;2022-10-16T18:02:21;6.07;;;3.00;;
33740;SDS011;20065;48.380;10.892;2022-10-16T18:05:08;7.70;;;3.07;;
33740;SDS011;20065;48.380;10.892;2022-10-16T18:07:56;6.23;;;3.50;;
33740;SDS011;20065;48.380;10.892;2022-10-16T18:10:46;5.27;;;3.00;;
33740;SDS011;20065;48.380;10.892;2022-10-16T18:13:33;8.00;;;3.53;;
33740;SDS011;20065;48.380;10.892;2022-10-16T18:16:19;9.40;;;5.30;;
33740;SDS011;20065;48.380;10.892;2022-10-16T18:19:06;9.40;;;6.10;;
33740;SDS011;20065;48.380;10.892;2022-10-16T18:21:53;14.53;;;7.67;;
33740;SDS011;20065;48.380;10.892;2022-10-16T18:24:43;13.93;;;8.27;;
33740;SDS011;20065;48.380;10.892;2022-10-16T18:27:30;14.17;;;9.17;;
33740;SDS011;20065;48.380;10.892;2022-10-16T18:30:17;15.00;;;10.83;;
33740;SDS011;20065;48.380;10.892;2022-10-16T18:33:04;14.80;;;9.20;;
33740;SDS011;20065;48.380;10.892;2022-10-16T18:35:51;11.17;;;8.20;;
33740;SDS011;20065;48.380;10.892;2022-10-16T18:38:37;15.40;;;7.07;;
33740;SDS011;20065;48.380;10.892;2022-10-16T18:41:24;12.83;;;8.70;;
33740;SDS011;20065;48.380;10.892;2022-10-16T18:44:11;13.30;;;9.40;;
33740;SDS011;20065;48.380;10.892;2022-10-16T18:46:58;14.30;;;7.90;;
33740;SDS011;20065;48.380;10.892;2022-10-16T18:49:50;25.13;;;8.50;;
33740;SDS011;20065;48.380;10.892;2022-10-16T18:52:37;16.53;;;11.20;;
33740;SDS011;20065;48.380;10.892;2022-10-16T18:55:24;12.30;;;8.37;;
33740;SDS011;20065;48.380;10.892;2022-10-16T18:58:12;13.43;;;7.50;;
33740;SDS011;20065;48.380;10.892;2022-10-16T19:01:03;15.80;;;7.60;;
33740;SDS011;20065;48.380;10.892;2022-10-16T19:03:57;12.20;;;7.10;;
33740;SDS011;20065;48.380;10.892;2022-10-16T19:06:45;11.63;;;6.57;;
33740;SDS011;20065;48.380;10.892;2022-10-16T19:09:31;12.50;;;8.03;;
33740;SDS011;20065;48.380;10.892;2022-10-16T19:12:18;15.80;;;7.57;;